createdAt,value
2023-02-15T00:01:15.237Z,95.33
2023-02-15T00:06:18.806Z,95.45
2023-02-15T00:11:40.658Z,95.82
2023-02-15T00:16:45.206Z,96.04
2023-02-15T00:21:49.683Z,95.96
2023-02-15T00:26:54.095Z,96.20
2023-02-15T00:31:57.270Z,96.27
2023-02-15T00:37:00.342Z,96.34
2023-02-15T00:42:03.572Z,96.65
2023-02-15T00:47:06.460Z,96.68
2023-02-15T00:52:09.363Z,96.58
2023-02-15T00:57:12.323Z,96.91
2023-02-15T01:02:15.567Z,97.02
2023-02-15T01:07:18.449Z,97.41
2023-02-15T01:12:21.311Z,97.37
2023-02-15T01:17:24.413Z,97.62
2023-02-15T01:22:27.476Z,98.01
2023-02-15T01:27:31.977Z,98.17
2023-02-15T01:32:34.772Z,98.04
2023-02-15T01:37:37.934Z,97.90
2023-02-15T01:42:41.645Z,98.19
2023-02-15T01:47:51.955Z,98.23
2023-02-15T01:53:38.025Z,98.37
2023-02-15T01:58:42.292Z,98.19
2023-02-15T02:03:58.836Z,98.52
2023-02-15T02:09:03.158Z,98.90
2023-02-15T02:14:06.233Z,98.62
2023-02-15T02:19:36.486Z,98.79
2023-02-15T02:25:02.195Z,98.83
2023-02-15T02:30:23.965Z,98.91
2023-02-15T02:36:04.326Z,99.05
2023-02-15T02:41:28.507Z,99.34
2023-02-15T02:47:13.287Z,99.24
2023-02-15T02:52:46.550Z,99.40
2023-02-15T02:58:30.438Z,99.82
2023-02-15T03:03:43.166Z,99.71
2023-02-15T03:09:17.891Z,100.00
2023-02-15T03:14:21.285Z,100.00
2023-02-15T03:19:30.489Z,100.00
2023-02-15T03:24:52.482Z,100.00
2023-02-15T03:30:00.691Z,100.00
2023-02-15T03:35:04.251Z,100.00
2023-02-15T03:40:45.680Z,100.00
2023-02-15T03:45:57.776Z,100.00
2023-02-15T03:51:27.097Z,100.00
2023-02-15T03:56:30.716Z,100.00
2023-02-15T04:01:59.446Z,100.00
2023-02-15T04:07:04.523Z,100.00
2023-02-15T04:12:07.881Z,100.00
2023-02-15T04:17:11.190Z,100.00
2023-02-15T04:22:32.587Z,100.00
2023-02-15T04:27:35.711Z,100.00
2023-02-15T04:32:39.728Z,100.00
2023-02-15T04:37:43.884Z,100.00
2023-02-15T04:42:50.170Z,100.00
2023-02-15T04:47:53.278Z,100.00
2023-02-15T04:52:56.298Z,100.00
2023-02-15T04:57:59.210Z,100.00
2023-02-15T05:03:02.258Z,100.00
2023-02-15T05:08:05.301Z,100.00
2023-02-15T05:13:08.328Z,100.00
2023-02-15T05:18:11.374Z,100.00
2023-02-15T05:23:14.922Z,100.00
2023-02-15T05:28:20.891Z,100.00
2023-02-15T05:33:23.950Z,100.00
2023-02-15T05:38:27.072Z,100.00
2023-02-15T05:43:30.598Z,100.00
2023-02-15T05:48:34.091Z,100.00
2023-02-15T05:53:39.465Z,100.00
2023-02-15T05:58:43.484Z,100.00
2023-02-15T06:03:47.344Z,100.00
2023-02-15T06:08:51.087Z,100.00
2023-02-15T06:13:53.951Z,100.00
2023-02-15T06:18:56.967Z,100.00
2023-02-15T06:24:00.059Z,100.00
2023-02-15T06:29:03.723Z,100.00
2023-02-15T06:34:07.630Z,100.00
2023-02-15T06:39:10.710Z,100.00
2023-02-15T06:44:13.752Z,100.00
2023-02-15T06:49:19.106Z,100.00
2023-02-15T06:54:22.169Z,100.00
2023-02-15T06:59:25.219Z,100.00
2023-02-15T07:04:30.547Z,100.00
2023-02-15T07:09:33.625Z,100.00
2023-02-15T07:14:36.713Z,100.00
2023-02-15T07:19:39.720Z,100.00
2023-02-15T07:24:42.544Z,100.00
2023-02-15T07:29:45.488Z,100.00
2023-02-15T07:34:48.364Z,100.00
2023-02-15T07:39:51.604Z,100.00
2023-02-15T07:44:54.604Z,100.00
2023-02-15T07:49:57.720Z,100.00
2023-02-15T07:55:00.810Z,100.00
2023-02-15T08:00:05.184Z,100.00
2023-02-15T08:05:09.494Z,98.72
2023-02-15T08:10:32.434Z,93.78
2023-02-15T08:15:35.365Z,89.79
2023-02-15T08:20:38.389Z,84.91
2023-02-15T08:25:41.379Z,80.97
2023-02-15T08:30:44.448Z,77.77
2023-02-15T08:35:48.032Z,73.72
2023-02-15T08:40:51.009Z,72.09
2023-02-15T08:45:53.982Z,69.59
2023-02-15T08:50:56.994Z,67.62
2023-02-15T08:56:00.874Z,66.29
2023-02-15T09:01:19.439Z,64.72
2023-02-15T09:06:23.584Z,64.34
2023-02-15T09:11:29.881Z,63.61
2023-02-15T09:16:36.341Z,62.99
2023-02-15T09:21:40.075Z,62.97
2023-02-15T09:26:45.990Z,61.24
2023-02-15T09:31:51.527Z,59.81
2023-02-15T09:36:54.627Z,59.62
2023-02-15T09:42:44.918Z,57.56
2023-02-15T09:48:02.820Z,56.34
2023-02-15T09:53:29.960Z,54.81
2023-02-15T09:58:57.171Z,54.33
2023-02-15T10:04:22.136Z,52.97
2023-02-15T10:09:46.839Z,51.86
2023-02-15T10:15:12.646Z,52.39
2023-02-15T10:20:51.162Z,52.61
2023-02-15T10:26:03.537Z,53.24
2023-02-15T10:31:34.872Z,52.68
2023-02-15T10:37:36.694Z,51.68
2023-02-15T10:43:31.686Z,49.91
2023-02-15T10:48:43.531Z,50.49
2023-02-15T10:54:10.977Z,49.20
2023-02-15T10:59:25.795Z,48.41
2023-02-15T11:05:01.517Z,46.33
2023-02-15T11:10:41.436Z,45.91
2023-02-15T11:16:09.594Z,45.58
2023-02-15T11:21:41.253Z,45.89
2023-02-15T11:26:57.819Z,45.60
2023-02-15T11:32:15.559Z,45.98
2023-02-15T11:37:25.376Z,46.83
2023-02-15T11:42:31.521Z,45.19
2023-02-15T11:47:35.064Z,46.02
2023-02-15T11:52:38.050Z,46.59
2023-02-15T11:57:49.515Z,46.74
2023-02-15T12:02:56.148Z,46.32
2023-02-15T12:08:10.689Z,46.45
2023-02-15T12:13:19.630Z,47.98
2023-02-15T12:18:37.596Z,49.52
2023-02-15T12:23:51.041Z,50.75
2023-02-15T12:28:55.623Z,51.79
2023-02-15T12:34:03.559Z,52.63
2023-02-15T12:39:12.906Z,53.29
2023-02-15T12:44:24.831Z,53.54
2023-02-15T12:49:30.800Z,53.84
2023-02-15T12:54:42.809Z,54.20
2023-02-15T13:00:00.494Z,54.80
2023-02-15T13:05:31.980Z,55.06
2023-02-15T13:10:40.904Z,54.82
2023-02-15T13:15:49.535Z,55.09
2023-02-15T13:20:53.758Z,54.95
2023-02-15T13:26:04.034Z,55.04
2023-02-15T13:31:19.961Z,55.05
2023-02-15T13:36:39.287Z,55.34
2023-02-15T13:42:10.083Z,55.06
2023-02-15T13:47:27.159Z,55.80
2023-02-15T13:52:34.045Z,55.87
2023-02-15T13:58:15.134Z,55.77
2023-02-15T14:04:03.149Z,55.86
2023-02-15T14:09:48.608Z,56.22
2023-02-15T14:15:27.582Z,56.22
2023-02-15T14:20:51.752Z,56.20
2023-02-15T14:26:21.054Z,56.04
2023-02-15T14:31:35.580Z,56.39
2023-02-15T14:36:38.855Z,56.60
2023-02-15T14:41:54.425Z,56.39
2023-02-15T14:47:15.832Z,56.69
2023-02-15T14:52:18.672Z,56.85
2023-02-15T14:57:27.440Z,57.11
2023-02-15T15:02:51.443Z,57.59
2023-02-15T15:07:59.175Z,57.71
2023-02-15T15:13:34.113Z,58.15
2023-02-15T15:18:49.051Z,58.26
2023-02-15T15:23:52.354Z,58.52
2023-02-15T15:28:58.736Z,59.07
2023-02-15T15:35:02.282Z,59.40
2023-02-15T15:40:25.856Z,60.39
2023-02-15T15:46:00.377Z,61.25
2023-02-15T15:51:32.195Z,62.29
2023-02-15T15:56:38.475Z,63.59
2023-02-15T16:01:45.415Z,64.50
2023-02-15T16:06:48.412Z,64.99
2023-02-15T16:12:06.219Z,66.08
2023-02-15T16:17:20.709Z,66.76
2023-02-15T16:22:30.250Z,67.97
2023-02-15T16:27:41.793Z,68.84
2023-02-15T16:32:44.838Z,68.96
2023-02-15T16:37:48.284Z,69.20
2023-02-15T16:43:23.714Z,69.85
2023-02-15T16:48:28.778Z,70.93
2023-02-15T16:53:31.878Z,71.60
2023-02-15T16:58:43.674Z,72.51
2023-02-15T17:03:51.311Z,73.31
2023-02-15T17:09:15.728Z,73.98
2023-02-15T17:14:28.012Z,74.64
2023-02-15T17:19:40.991Z,75.08
2023-02-15T17:24:46.960Z,75.71
2023-02-15T17:29:59.458Z,76.16
2023-02-15T17:35:25.996Z,76.47
2023-02-15T17:40:33.285Z,76.77
2023-02-15T17:45:50.191Z,77.49
2023-02-15T17:50:53.414Z,78.13
2023-02-15T17:55:59.350Z,78.56
2023-02-15T18:01:35.417Z,79.41
2023-02-15T18:07:00.723Z,80.10
2023-02-15T18:12:15.835Z,80.73
2023-02-15T18:17:19.278Z,81.58
2023-02-15T18:22:23.576Z,81.71
2023-02-15T18:27:27.393Z,82.40
2023-02-15T18:32:36.393Z,83.43
2023-02-15T18:37:39.840Z,84.57
2023-02-15T18:42:51.616Z,85.32
2023-02-15T18:48:00.629Z,85.37
2023-02-15T18:53:07.809Z,85.04
2023-02-15T18:58:18.398Z,85.28
2023-02-15T19:03:24.077Z,85.46
2023-02-15T19:08:26.906Z,85.37
2023-02-15T19:13:30.352Z,86.24
2023-02-15T19:18:33.603Z,86.39
2023-02-15T19:23:36.882Z,86.80
2023-02-15T19:28:40.143Z,86.97
2023-02-15T19:33:43.585Z,87.05
2023-02-15T19:38:51.261Z,87.51
2023-02-15T19:43:56.296Z,87.70
2023-02-15T19:48:59.922Z,87.85
2023-02-15T19:54:03.111Z,88.51
2023-02-15T19:59:23.644Z,88.87
2023-02-15T20:04:27.308Z,89.27
2023-02-15T20:09:35.494Z,89.44
2023-02-15T20:14:38.436Z,89.43
2023-02-15T20:19:41.685Z,89.73
2023-02-15T20:24:44.695Z,90.58
2023-02-15T20:29:48.170Z,90.72
2023-02-15T20:34:51.136Z,90.79
2023-02-15T20:39:54.623Z,91.19
2023-02-15T20:44:57.404Z,91.34
2023-02-15T20:50:01.885Z,91.72
2023-02-15T20:55:27.140Z,91.97
2023-02-15T21:00:32.229Z,92.02
2023-02-15T21:05:35.224Z,92.20
2023-02-15T21:10:38.632Z,92.35
2023-02-15T21:15:41.655Z,93.01
2023-02-15T21:20:48.436Z,93.29
2023-02-15T21:25:51.773Z,93.48
2023-02-15T21:31:00.066Z,93.83
2023-02-15T21:36:03.177Z,94.68
2023-02-15T21:41:25.098Z,95.20
2023-02-15T21:46:47.010Z,95.32
2023-02-15T21:52:09.681Z,95.77
2023-02-15T21:57:18.728Z,95.67
2023-02-15T22:02:30.494Z,95.79
2023-02-15T22:07:33.484Z,96.26
2023-02-15T22:12:38.374Z,95.88
2023-02-15T22:17:41.107Z,96.08
2023-02-15T22:22:44.007Z,96.27
2023-02-15T22:27:48.259Z,96.39
2023-02-15T22:32:54.793Z,96.36
2023-02-15T22:37:58.281Z,96.55
2023-02-15T22:43:05.715Z,96.70
2023-02-15T22:48:11.501Z,96.97
2023-02-15T22:53:15.133Z,97.16
2023-02-15T22:58:24.810Z,97.13
2023-02-15T23:03:31.487Z,97.11
2023-02-15T23:08:35.723Z,97.40
2023-02-15T23:13:38.825Z,97.51
2023-02-15T23:18:47.282Z,97.80
2023-02-15T23:23:57.580Z,97.84
2023-02-15T23:29:04.012Z,97.91
2023-02-15T23:34:25.955Z,98.07
2023-02-15T23:39:47.673Z,98.26
2023-02-15T23:44:51.548Z,98.45
2023-02-15T23:49:54.536Z,98.47
2023-02-15T23:54:57.484Z,98.42
